Millford, South Carolina
Current Conditions -  °F | °C
As of 3:58 AM on Thursday 27 Nov 2014 (Local Time) from KSSC Reporting Station
Overcast Overcast  
Wind Chill: 39°   Ceiling: 7500
Heat Index: 43°   Visibility: 10mi
Dew Point: 35°   Wind: 6mph
Humidity: 74%   Direction: 170°S
Pressure: 30.02"   Gusts: NA
Location:  33.7445°N, 80.5249°W
Report Text: KSSC 270858Z AUTO 17005KT 10SM BKN075 OVC110 06/02 A3002 RMK AO2 SLP168 T00590015 58012 $
Loading
Personal Weather Stations






























Interactive Weather Map New forecast layout! Learn more

10-Day Weather Forecast

Advertisements
Track Severe Weather on mobile